Time;durP1;ratioP1;P1;durP2;ratioP2;P2;SDS_P1;SDS_P2;PMS_P1;PMS_P2;Temp;Humidity;BMP_temperature;BMP_pressure;BME280_temperature;BME280_humidity;BME280_pressure;Samples;Min_cycle;Max_cycle;Signal;HPM_P1;HPM_P2
2023/01/10 00:01:16;;;;;;;4.82;1.50;;;;;;;;;;4979832;28;20053;-64
2023/01/10 00:03:46;;;;;;;27.05;1.80;;;;;;;;;;4996171;28;20065;-64
2023/01/10 00:06:17;;;;;;;13.20;2.00;;;;;;;;;;5012139;28;20057;-65
2023/01/10 00:08:48;;;;;;;7.45;1.40;;;;;;;;;;4992551;28;20076;-64
2023/01/10 00:14:07;;;;;;;7.40;1.38;;;;;;;;;;4960257;28;20080;-64
2023/01/10 00:16:38;;;;;;;7.00;1.73;;;;;;;;;;4963644;28;20546;-64
2023/01/10 00:19:09;;;;;;;11.93;1.63;;;;;;;;;;4972816;28;20062;-64
2023/01/10 00:21:40;;;;;;;8.40;1.90;;;;;;;;;;4980050;28;20126;-65
2023/01/10 00:24:21;;;;;;;6.43;1.40;;;;;;;;;;5012007;28;20050;-64
2023/01/10 00:26:51;;;;;;;9.02;1.27;;;;;;;;;;5011938;28;20050;-64
2023/01/10 00:29:26;;;;;;;6.75;1.20;;;;;;;;;;4980073;28;20058;-64
2023/01/10 00:31:57;;;;;;;6.07;1.25;;;;;;;;;;5011864;28;20375;-65
2023/01/10 00:34:28;;;;;;;2.47;0.93;;;;;;;;;;5011720;28;20515;-65
2023/01/10 00:36:59;;;;;;;5.05;0.90;;;;;;;;;;4979378;28;20065;-65
2023/01/10 00:39:30;;;;;;;7.50;1.13;;;;;;;;;;5011754;28;20072;-64
2023/01/10 00:44:50;;;;;;;3.58;0.90;;;;;;;;;;4972324;28;20054;-64
2023/01/10 00:47:20;;;;;;;9.75;0.95;;;;;;;;;;5006365;28;20050;-65
2023/01/10 00:49:50;;;;;;;7.28;1.15;;;;;;;;;;5011491;28;20505;-65
2023/01/10 00:52:20;;;;;;;6.45;1.40;;;;;;;;;;5011619;28;20054;-64
2023/01/10 00:54:50;;;;;;;5.78;1.60;;;;;;;;;;4994782;28;20483;-65
2023/01/10 00:57:20;;;;;;;8.88;2.25;;;;;;;;;;5010277;28;20580;-64
2023/01/10 00:59:51;;;;;;;5.32;1.23;;;;;;;;;;4979697;28;20481;-65
2023/01/10 01:02:21;;;;;;;6.07;1.25;;;;;;;;;;4962560;28;20053;-64
2023/01/10 01:04:51;;;;;;;5.05;1.15;;;;;;;;;;4994635;28;20656;-64
2023/01/10 01:07:22;;;;;;;6.57;1.42;;;;;;;;;;4946408;28;20045;-65
2023/01/10 01:12:41;;;;;;;2.65;0.93;;;;;;;;;;5011127;28;20054;-64
2023/01/10 01:15:11;;;;;;;2.47;0.80;;;;;;;;;;5011045;28;20081;-64
2023/01/10 01:17:41;;;;;;;2.22;0.82;;;;;;;;;;5011126;28;20049;-65
2023/01/10 01:20:11;;;;;;;6.25;1.65;;;;;;;;;;5010851;28;20049;-64
2023/01/10 01:22:41;;;;;;;5.35;0.75;;;;;;;;;;5038992;28;20492;-64
2023/01/10 01:25:11;;;;;;;3.45;0.80;;;;;;;;;;5073040;28;20051;-64
2023/01/10 01:27:41;;;;;;;2.70;1.10;;;;;;;;;;5073204;28;20044;-64
2023/01/10 01:30:12;;;;;;;8.57;1.02;;;;;;;;;;5020685;28;20049;-64
2023/01/10 01:32:42;;;;;;;10.60;1.45;;;;;;;;;;5021159;28;20052;-64
2023/01/10 01:35:14;;;;;;;8.63;1.50;;;;;;;;;;5073126;28;20045;-64
2023/01/10 01:37:44;;;;;;;10.65;1.38;;;;;;;;;;5037555;28;20577;-64
2023/01/10 01:40:17;;;;;;;2.80;1.20;;;;;;;;;;5020805;28;20060;-65
2023/01/10 01:42:48;;;;;;;3.90;1.35;;;;;;;;;;5072954;28;20048;-64
2023/01/10 01:45:22;;;;;;;10.68;2.20;;;;;;;;;;5072677;28;20041;-64
2023/01/10 01:48:00;;;;;;;9.25;1.52;;;;;;;;;;5072792;28;20048;-65
2023/01/10 01:50:30;;;;;;;;;;;;;;;;;;5021106;28;20512;-64
2023/01/10 01:53:05;;;;;;;5.72;1.00;;;;;;;;;;5054830;28;19921;-64
2023/01/10 01:55:36;;;;;;;7.78;1.08;;;;;;;;;;5020496;28;20060;-65
2023/01/10 01:58:13;;;;;;;5.18;1.60;;;;;;;;;;5072305;28;20048;-64
2023/01/10 02:00:43;;;;;;;3.53;1.25;;;;;;;;;;5072506;28;20071;-64
2023/01/10 02:03:16;;;;;;;11.18;1.42;;;;;;;;;;5036853;28;20079;-64
2023/01/10 02:05:46;;;;;;;15.00;1.25;;;;;;;;;;5029631;28;20096;-64
2023/01/10 02:08:16;;;;;;;7.10;1.50;;;;;;;;;;5029624;28;20053;-64
2023/01/10 02:11:07;;;;;;;7.75;1.48;;;;;;;;;;5029701;28;20045;-65
2023/01/10 02:13:40;;;;;;;;;;;;;;;;;;5030377;28;20057;-64
2023/01/10 02:16:10;;;;;;;2.13;0.90;;;;;;;;;;4997217;28;19921;-64
2023/01/10 02:18:42;;;;;;;4.45;1.10;;;;;;;;;;5029185;28;21022;-64
2023/01/10 02:21:12;;;;;;;3.17;1.10;;;;;;;;;;5029790;28;20049;-64
2023/01/10 02:24:08;;;;;;;3.35;1.40;;;;;;;;;;5029769;28;20085;-64
2023/01/10 02:26:56;;;;;;;6.60;1.02;;;;;;;;;;5029983;28;20041;-64
2023/01/10 02:29:45;;;;;;;8.10;1.38;;;;;;;;;;5012816;28;20061;-64
2023/01/10 02:32:41;;;;;;;4.70;1.30;;;;;;;;;;4996592;28;20061;-65
2023/01/10 02:35:42;;;;;;;6.38;1.50;;;;;;;;;;5018520;28;20056;-64
2023/01/10 02:38:34;;;;;;;2.35;1.10;;;;;;;;;;5029428;28;20635;-64
2023/01/10 02:41:23;;;;;;;3.35;0.90;;;;;;;;;;5009601;28;20064;-64
2023/01/10 02:44:23;;;;;;;2.42;0.90;;;;;;;;;;4974501;28;20053;-64
2023/01/10 02:46:56;;;;;;;4.97;1.30;;;;;;;;;;4970164;28;20491;-65
2023/01/10 02:49:26;;;;;;;;;;;;;;;;;;4970896;28;20535;-64
2023/01/10 02:51:56;;;;;;;4.80;0.80;;;;;;;;;;4970024;28;19922;-64
2023/01/10 02:54:29;;;;;;;5.30;0.98;;;;;;;;;;4970117;28;20514;-65
2023/01/10 02:57:40;;;;;;;6.55;1.13;;;;;;;;;;4953804;28;20054;-64
2023/01/10 03:00:38;;;;;;;7.18;1.35;;;;;;;;;;4931826;29;20055;-64
2023/01/10 03:03:26;;;;;;;4.15;1.08;;;;;;;;;;4932099;29;20055;-64
2023/01/10 03:06:06;;;;;;;5.35;1.40;;;;;;;;;;4931831;29;20064;-64
2023/01/10 03:08:43;;;;;;;4.80;0.95;;;;;;;;;;4916437;29;20074;-64
2023/01/10 03:11:13;;;;;;;6.25;1.42;;;;;;;;;;4931692;29;20059;-64
2023/01/10 03:14:00;;;;;;;5.75;1.30;;;;;;;;;;4916361;29;20736;-65
2023/01/10 03:16:34;;;;;;;6.82;1.25;;;;;;;;;;4915904;29;20055;-64
2023/01/10 03:19:12;;;;;;;4.32;1.33;;;;;;;;;;4906105;29;20407;-64
2023/01/10 03:21:43;;;;;;;6.53;1.48;;;;;;;;;;4950828;28;20055;-65
2023/01/10 03:24:19;;;;;;;3.47;0.90;;;;;;;;;;4978555;28;20062;-64
2023/01/10 03:27:08;;;;;;;5.72;1.33;;;;;;;;;;4937753;28;20061;-65
2023/01/10 03:30:03;;;;;;;8.77;1.35;;;;;;;;;;4969736;28;20090;-65
2023/01/10 03:32:33;;;;;;;8.43;1.40;;;;;;;;;;4953696;28;20062;-64
2023/01/10 03:35:06;;;;;;;5.97;1.55;;;;;;;;;;4969987;28;20050;-64
2023/01/10 03:37:45;;;;;;;6.07;1.30;;;;;;;;;;5014785;28;20053;-64
2023/01/10 03:40:29;;;;;;;5.88;1.40;;;;;;;;;;5018744;28;20499;-65
2023/01/10 03:46:29;;;;;;;9.77;1.42;;;;;;;;;;5008615;28;20061;-64
2023/01/10 03:49:02;;;;;;;6.45;1.30;;;;;;;;;;5008777;28;20054;-65
2023/01/10 03:51:36;;;;;;;4.68;0.98;;;;;;;;;;4975889;28;20418;-64
2023/01/10 03:54:06;;;;;;;5.40;1.42;;;;;;;;;;4989070;28;20062;-64
2023/01/10 03:56:50;;;;;;;4.95;1.13;;;;;;;;;;4956635;28;20098;-65
2023/01/10 03:59:24;;;;;;;4.75;1.08;;;;;;;;;;4972613;28;20151;-65
2023/01/10 04:01:55;;;;;;;9.00;1.48;;;;;;;;;;4989478;28;20054;-65
2023/01/10 04:04:26;;;;;;;6.32;1.35;;;;;;;;;;4972684;28;20125;-65
2023/01/10 04:06:56;;;;;;;2.78;1.15;;;;;;;;;;4988850;28;20199;-65
2023/01/10 04:09:26;;;;;;;6.75;1.30;;;;;;;;;;4956477;28;20054;-65
2023/01/10 04:11:55;;;;;;;2.90;1.10;;;;;;;;;;4956276;28;20058;-65
2023/01/10 04:14:31;;;;;;;3.78;1.10;;;;;;;;;;4956482;28;20069;-65
2023/01/10 04:17:03;;;;;;;6.65;1.52;;;;;;;;;;4988856;28;20065;-65
2023/01/10 04:19:33;;;;;;;3.47;0.95;;;;;;;;;;4988441;28;20050;-65
2023/01/10 04:22:04;;;;;;;7.47;1.40;;;;;;;;;;4988662;28;20062;-65
2023/01/10 04:24:34;;;;;;;2.80;1.10;;;;;;;;;;5039925;28;20061;-65
2023/01/10 04:27:06;;;;;;;5.30;1.23;;;;;;;;;;5070388;28;20049;-65
2023/01/10 04:29:37;;;;;;;5.10;1.42;;;;;;;;;;5070275;28;20052;-65
2023/01/10 04:32:07;;;;;;;5.22;1.30;;;;;;;;;;5020773;28;20488;-65
2023/01/10 04:34:37;;;;;;;7.13;0.98;;;;;;;;;;5074227;28;20052;-65
2023/01/10 04:37:08;;;;;;;4.93;1.00;;;;;;;;;;5074140;28;20044;-65
2023/01/10 04:39:38;;;;;;;4.18;1.20;;;;;;;;;;5038709;28;20424;-65
2023/01/10 04:42:08;;;;;;;3.40;1.65;;;;;;;;;;5055412;28;20393;-65
2023/01/10 04:44:38;;;;;;;2.72;1.30;;;;;;;;;;5074218;28;20055;-65
2023/01/10 04:47:08;;;;;;;3.40;0.88;;;;;;;;;;5073792;28;20045;-65
2023/01/10 04:49:37;;;;;;;5.55;1.38;;;;;;;;;;5021774;28;20053;-65
2023/01/10 04:52:07;;;;;;;5.85;1.23;;;;;;;;;;5073837;28;20052;-65
2023/01/10 04:54:38;;;;;;;5.13;1.20;;;;;;;;;;5073870;28;20040;-65
2023/01/10 04:57:08;;;;;;;4.40;1.20;;;;;;;;;;5037969;28;20049;-65
2023/01/10 04:59:37;;;;;;;2.47;1.00;;;;;;;;;;5021726;28;20060;-65
2023/01/10 05:02:07;;;;;;;5.50;1.10;;;;;;;;;;5030791;28;20065;-64
2023/01/10 05:04:37;;;;;;;2.60;1.00;;;;;;;;;;5031293;28;20057;-65
2023/01/10 05:07:07;;;;;;;7.85;1.23;;;;;;;;;;5030727;28;20084;-65
2023/01/10 05:09:37;;;;;;;2.53;0.93;;;;;;;;;;4997997;28;20046;-65
2023/01/10 05:12:07;;;;;;;5.25;1.33;;;;;;;;;;4998060;28;20521;-65
2023/01/10 05:14:38;;;;;;;4.57;1.40;;;;;;;;;;5014943;28;20544;-65
2023/01/10 05:17:08;;;;;;;3.28;1.52;;;;;;;;;;4981504;28;20543;-64
2023/01/10 05:19:39;;;;;;;6.43;1.20;;;;;;;;;;5030907;28;20053;-65
2023/01/10 05:22:09;;;;;;;5.20;1.33;;;;;;;;;;4998348;28;20490;-65
2023/01/10 05:24:40;;;;;;;2.65;1.17;;;;;;;;;;4981625;28;20080;-65
2023/01/10 05:27:09;;;;;;;3.72;1.33;;;;;;;;;;4981644;28;20084;-65
2023/01/10 05:29:39;;;;;;;6.25;1.33;;;;;;;;;;5013838;28;20414;-64
2023/01/10 05:32:09;;;;;;;3.22;1.10;;;;;;;;;;5030437;28;20128;-65
2023/01/10 05:34:40;;;;;;;3.25;1.48;;;;;;;;;;5030626;28;20049;-65
2023/01/10 05:37:10;;;;;;;7.55;1.13;;;;;;;;;;5030588;28;20053;-64
2023/01/10 05:39:41;;;;;;;4.93;1.70;;;;;;;;;;5010188;28;20064;-65
2023/01/10 05:42:12;;;;;;;12.27;1.73;;;;;;;;;;5003716;28;20543;-65
2023/01/10 05:44:43;;;;;;;5.47;1.50;;;;;;;;;;5072546;28;20060;-65
2023/01/10 05:47:12;;;;;;;7.43;1.40;;;;;;;;;;5020524;28;20049;-65
2023/01/10 05:49:42;;;;;;;7.13;1.73;;;;;;;;;;5072738;28;20064;-65
2023/01/10 05:52:12;;;;;;;5.45;1.30;;;;;;;;;;5072939;28;20068;-65
2023/01/10 05:54:42;;;;;;;6.10;1.27;;;;;;;;;;5072575;28;20531;-65
2023/01/10 05:57:12;;;;;;;6.55;1.50;;;;;;;;;;5072667;28;20045;-65
2023/01/10 05:59:41;;;;;;;6.80;1.30;;;;;;;;;;5053445;28;20053;-65
2023/01/10 06:02:12;;;;;;;7.40;1.70;;;;;;;;;;5072469;28;20477;-65
2023/01/10 06:04:42;;;;;;;4.55;1.30;;;;;;;;;;5020227;28;20087;-65
2023/01/10 06:07:12;;;;;;;3.38;1.30;;;;;;;;;;5072407;28;20111;-65
2023/01/10 06:09:42;;;;;;;2.80;0.98;;;;;;;;;;5071942;28;20067;-65
2023/01/10 06:12:12;;;;;;;2.35;1.02;;;;;;;;;;5072073;28;20048;-65
2023/01/10 06:14:42;;;;;;;4.35;1.85;;;;;;;;;;5072262;28;20053;-65
2023/01/10 06:17:12;;;;;;;4.07;1.10;;;;;;;;;;5016250;28;20045;-65
2023/01/10 06:19:41;;;;;;;2.75;1.10;;;;;;;;;;5000216;28;20095;-65
2023/01/10 06:22:11;;;;;;;2.08;1.00;;;;;;;;;;5033305;28;20053;-65
2023/01/10 06:24:41;;;;;;;5.03;1.30;;;;;;;;;;5033268;28;20433;-65
2023/01/10 06:27:11;;;;;;;2.05;1.00;;;;;;;;;;5032796;28;20528;-65
2023/01/10 06:29:41;;;;;;;3.78;1.13;;;;;;;;;;5049376;28;20059;-65
2023/01/10 06:32:11;;;;;;;4.07;1.23;;;;;;;;;;5049840;28;20508;-65
2023/01/10 06:34:41;;;;;;;4.75;1.13;;;;;;;;;;5000041;28;20493;-64
2023/01/10 06:37:11;;;;;;;9.20;1.40;;;;;;;;;;5049457;28;20059;-64
2023/01/10 06:39:41;;;;;;;2.13;1.02;;;;;;;;;;5032641;28;20656;-64
2023/01/10 06:42:11;;;;;;;4.85;1.20;;;;;;;;;;5049041;28;20069;-64
2023/01/10 06:44:41;;;;;;;3.85;1.17;;;;;;;;;;5048751;28;20045;-64
2023/01/10 06:47:11;;;;;;;6.60;1.58;;;;;;;;;;5015965;28;20053;-64
2023/01/10 06:49:41;;;;;;;3.85;1.48;;;;;;;;;;5048876;28;20056;-64
2023/01/10 06:52:11;;;;;;;7.47;1.58;;;;;;;;;;5048961;28;20421;-65
2023/01/10 06:54:41;;;;;;;8.13;2.30;;;;;;;;;;5017042;28;20181;-64
2023/01/10 06:57:11;;;;;;;13.48;2.38;;;;;;;;;;5045493;28;20046;-64
2023/01/10 06:59:42;;;;;;;5.32;1.20;;;;;;;;;;5028763;28;20057;-65
2023/01/10 07:02:12;;;;;;;5.57;1.23;;;;;;;;;;5012413;28;20053;-65
2023/01/10 07:04:43;;;;;;;5.22;0.98;;;;;;;;;;5029118;28;20053;-65
2023/01/10 07:07:13;;;;;;;12.13;1.73;;;;;;;;;;5028771;28;20057;-65
2023/01/10 07:09:45;;;;;;;13.15;2.03;;;;;;;;;;5012698;28;20398;-65
2023/01/10 07:12:15;;;;;;;2.60;1.00;;;;;;;;;;4995844;28;20060;-65
2023/01/10 07:14:45;;;;;;;3.25;1.42;;;;;;;;;;5028703;28;20513;-65
2023/01/10 07:17:15;;;;;;;5.00;0.98;;;;;;;;;;5028561;28;20041;-65
2023/01/10 07:19:45;;;;;;;4.35;1.38;;;;;;;;;;5028708;28;20057;-65
2023/01/10 07:22:15;;;;;;;3.22;1.30;;;;;;;;;;4989118;28;20533;-65
2023/01/10 07:24:45;;;;;;;4.38;1.27;;;;;;;;;;4989116;28;20062;-64
2023/01/10 07:27:15;;;;;;;2.90;1.20;;;;;;;;;;4989201;28;20059;-64
2023/01/10 07:29:45;;;;;;;3.08;1.30;;;;;;;;;;5005307;28;20050;-64
2023/01/10 07:32:15;;;;;;;5.18;1.17;;;;;;;;;;4998066;28;20429;-65
2023/01/10 07:34:45;;;;;;;6.95;2.00;;;;;;;;;;5024955;28;20061;-65
2023/01/10 07:37:15;;;;;;;42.42;4.10;;;;;;;;;;5008781;28;20045;-65
2023/01/10 07:39:44;;;;;;;8.68;1.75;;;;;;;;;;4992033;28;20057;-65
2023/01/10 07:42:14;;;;;;;3.38;1.30;;;;;;;;;;4976478;28;20058;-65
2023/01/10 07:44:44;;;;;;;3.03;1.25;;;;;;;;;;5025122;28;20054;-65
2023/01/10 07:47:17;;;;;;;4.90;1.23;;;;;;;;;;4976132;28;20065;-65
2023/01/10 07:49:47;;;;;;;3.42;1.40;;;;;;;;;;5008389;28;20090;-65
2023/01/10 07:52:19;;;;;;;2.00;1.05;;;;;;;;;;4975984;28;20784;-64
2023/01/10 07:54:49;;;;;;;3.10;1.40;;;;;;;;;;4976067;28;20053;-65
2023/01/10 07:57:19;;;;;;;4.05;1.20;;;;;;;;;;4992117;28;20058;-65
2023/01/10 07:59:50;;;;;;;2.47;1.10;;;;;;;;;;4984609;28;20056;-65
2023/01/10 08:02:19;;;;;;;3.97;1.50;;;;;;;;;;5015339;28;20400;-64
2023/01/10 08:04:49;;;;;;;11.48;1.20;;;;;;;;;;4998715;28;20485;-65
2023/01/10 08:07:19;;;;;;;4.85;1.35;;;;;;;;;;5068170;28;20068;-65
2023/01/10 08:09:49;;;;;;;4.15;1.73;;;;;;;;;;5054733;28;20404;-65
2023/01/10 08:12:20;;;;;;;4.07;1.50;;;;;;;;;;5054381;28;20045;-65
2023/01/10 08:14:51;;;;;;;3.72;1.10;;;;;;;;;;5054397;28;20400;-65
2023/01/10 08:17:21;;;;;;;3.40;1.40;;;;;;;;;;5054551;28;20063;-65
2023/01/10 08:19:52;;;;;;;4.53;1.40;;;;;;;;;;5054629;28;20405;-65
2023/01/10 08:22:22;;;;;;;6.40;1.55;;;;;;;;;;5054252;28;20421;-65
2023/01/10 08:24:52;;;;;;;3.50;1.75;;;;;;;;;;5035581;28;20493;-65
2023/01/10 08:27:22;;;;;;;4.15;1.40;;;;;;;;;;5054204;28;20053;-65
2023/01/10 08:29:52;;;;;;;3.70;1.42;;;;;;;;;;5019156;28;20060;-65
2023/01/10 08:32:22;;;;;;;4.00;1.38;;;;;;;;;;5003231;28;20049;-64
2023/01/10 08:34:52;;;;;;;4.50;1.30;;;;;;;;;;5019135;28;20057;-65
2023/01/10 08:37:22;;;;;;;3.10;1.35;;;;;;;;;;5018603;28;20757;-65
2023/01/10 08:39:52;;;;;;;3.97;1.48;;;;;;;;;;5052665;28;20052;-64
2023/01/10 08:42:22;;;;;;;3.90;1.42;;;;;;;;;;5035171;28;20382;-65
2023/01/10 08:44:53;;;;;;;6.45;1.52;;;;;;;;;;5011674;28;20054;-65
2023/01/10 08:47:23;;;;;;;4.15;1.33;;;;;;;;;;4991731;28;20058;-65
2023/01/10 08:49:53;;;;;;;2.95;1.30;;;;;;;;;;4975744;28;20065;-65
2023/01/10 08:52:23;;;;;;;3.28;1.42;;;;;;;;;;4991906;28;20053;-65
2023/01/10 08:54:54;;;;;;;5.07;1.70;;;;;;;;;;4992131;28;20046;-65
2023/01/10 08:57:23;;;;;;;2.78;1.50;;;;;;;;;;4959550;28;20050;-64
2023/01/10 08:59:53;;;;;;;4.90;1.45;;;;;;;;;;4991970;28;20061;-65
2023/01/10 09:02:23;;;;;;;3.67;1.77;;;;;;;;;;4992252;28;20054;-65
2023/01/10 09:04:53;;;;;;;4.82;1.65;;;;;;;;;;4991460;28;20046;-65
2023/01/10 09:07:23;;;;;;;2.78;1.40;;;;;;;;;;4991817;28;20533;-64
2023/01/10 09:09:53;;;;;;;3.15;1.15;;;;;;;;;;4975330;28;20066;-65
2023/01/10 09:15:13;;;;;;;3.40;1.30;;;;;;;;;;4991395;28;20062;-64
2023/01/10 09:17:44;;;;;;;5.05;1.50;;;;;;;;;;4974653;28;20509;-65
2023/01/10 09:20:14;;;;;;;5.38;1.30;;;;;;;;;;4991627;28;20418;-65
2023/01/10 09:22:44;;;;;;;8.57;1.83;;;;;;;;;;4970271;28;20166;-65
2023/01/10 09:25:13;;;;;;;6.43;1.80;;;;;;;;;;4973552;28;20065;-64
2023/01/10 09:27:44;;;;;;;2.50;1.27;;;;;;;;;;5030616;28;20054;-64
2023/01/10 09:30:15;;;;;;;6.45;1.42;;;;;;;;;;5030716;28;20068;-65
2023/01/10 09:32:50;;;;;;;3.17;1.52;;;;;;;;;;5030652;28;20129;-65
2023/01/10 09:35:21;;;;;;;3.65;1.27;;;;;;;;;;4997718;28;20061;-64
2023/01/10 09:37:54;;;;;;;2.72;1.50;;;;;;;;;;5030509;28;20053;-65
2023/01/10 09:40:49;;;;;;;6.13;1.38;;;;;;;;;;5030610;28;20060;-65
2023/01/10 09:43:41;;;;;;;3.80;1.42;;;;;;;;;;5014435;28;20417;-65
2023/01/10 09:46:14;;;;;;;3.67;1.30;;;;;;;;;;5013943;28;20429;-65
2023/01/10 09:48:54;;;;;;;4.28;1.65;;;;;;;;;;5032956;28;20417;-65
2023/01/10 09:51:40;;;;;;;4.28;1.52;;;;;;;;;;5039186;28;20052;-64
2023/01/10 09:54:32;;;;;;;4.82;1.70;;;;;;;;;;5072546;28;20044;-65
2023/01/10 09:57:03;;;;;;;4.53;1.70;;;;;;;;;;5072368;28;20052;-65
2023/01/10 09:59:38;;;;;;;3.05;1.60;;;;;;;;;;5020552;28;20064;-64
2023/01/10 10:02:43;;;;;;;4.95;1.55;;;;;;;;;;5072654;28;20400;-65
2023/01/10 10:05:21;;;;;;;3.92;1.60;;;;;;;;;;5072068;28;20041;-65
2023/01/10 10:08:01;;;;;;;6.45;1.92;;;;;;;;;;5036982;28;20511;-64
2023/01/10 10:10:39;;;;;;;5.05;1.85;;;;;;;;;;5072383;28;20048;-65
2023/01/10 10:13:10;;;;;;;6.22;1.80;;;;;;;;;;5036747;28;20053;-65
2023/01/10 10:16:18;;;;;;;3.40;1.70;;;;;;;;;;5036791;28;20052;-65
2023/01/10 10:18:48;;;;;;;27.42;4.05;;;;;;;;;;4996358;28;20093;-65
2023/01/10 10:21:37;;;;;;;3.72;1.63;;;;;;;;;;5013106;28;20083;-65
2023/01/10 10:24:56;;;;;;;6.63;1.60;;;;;;;;;;5029489;28;20057;-65
2023/01/10 10:27:56;;;;;;;5.18;1.80;;;;;;;;;;4993409;28;20529;-66
2023/01/10 10:30:53;;;;;;;4.00;1.67;;;;;;;;;;4915736;29;20489;-65
2023/01/10 10:33:55;;;;;;;2.70;1.42;;;;;;;;;;4838307;29;20054;-65
2023/01/10 10:36:52;;;;;;;5.00;1.63;;;;;;;;;;4838675;29;20053;-65
2023/01/10 10:39:34;;;;;;;4.55;1.50;;;;;;;;;;4801898;29;20062;-65
2023/01/10 10:42:12;;;;;;;5.10;1.65;;;;;;;;;;4800925;29;20046;-65
2023/01/10 10:44:54;;;;;;;5.45;1.63;;;;;;;;;;4802010;29;20059;-66
2023/01/10 10:47:31;;;;;;;3.30;1.25;;;;;;;;;;4802132;29;20081;-66
2023/01/10 10:50:23;;;;;;;3.30;1.25;;;;;;;;;;4801949;29;20055;-66
2023/01/10 10:52:54;;;;;;;4.07;1.63;;;;;;;;;;4801802;29;20063;-65
2023/01/10 10:55:32;;;;;;;3.70;1.30;;;;;;;;;;4772918;29;20050;-69
2023/01/10 10:58:06;;;;;;;3.03;1.40;;;;;;;;;;4820088;29;20059;-65
2023/01/10 11:00:37;;;;;;;2.15;1.15;;;;;;;;;;4816475;29;20073;-65
2023/01/10 11:03:13;;;;;;;3.85;1.45;;;;;;;;;;4801919;29;20063;-66
2023/01/10 11:05:46;;;;;;;2.83;1.10;;;;;;;;;;4816926;29;20066;-65
2023/01/10 11:08:20;;;;;;;4.00;1.15;;;;;;;;;;4894043;29;20050;-65
2023/01/10 11:10:54;;;;;;;1.55;0.90;;;;;;;;;;4911545;28;20557;-65
2023/01/10 11:13:32;;;;;;;1.50;0.85;;;;;;;;;;4989574;28;20097;-65
2023/01/10 11:16:05;;;;;;;1.88;0.88;;;;;;;;;;5014621;28;20496;-65
2023/01/10 11:18:37;;;;;;;3.03;1.02;;;;;;;;;;5048545;28;20061;-66
2023/01/10 11:21:13;;;;;;;;;;;;;;;;;;5048812;28;20200;-66
2023/01/10 11:23:51;;;;;;;3.45;1.42;;;;;;;;;;5048485;28;19922;-66
2023/01/10 11:26:35;;;;;;;3.58;0.90;;;;;;;;;;5015175;28;20053;-66
2023/01/10 11:29:19;;;;;;;3.13;0.82;;;;;;;;;;5048346;28;20053;-65
2023/01/10 11:31:50;;;;;;;3.00;1.33;;;;;;;;;;5031978;28;20500;-66
2023/01/10 11:34:30;;;;;;;2.42;1.10;;;;;;;;;;5048151;28;20060;-66
2023/01/10 11:37:02;;;;;;;6.50;1.45;;;;;;;;;;5048100;28;20052;-65
2023/01/10 11:39:33;;;;;;;2.08;0.88;;;;;;;;;;5016062;28;20068;-66
2023/01/10 11:42:24;;;;;;;2.78;1.00;;;;;;;;;;5014831;28;20057;-66
2023/01/10 11:44:54;;;;;;;1.27;0.70;;;;;;;;;;4975820;28;20580;-66
2023/01/10 11:47:24;;;;;;;2.60;1.00;;;;;;;;;;4991967;28;20072;-65
2023/01/10 11:49:58;;;;;;;2.05;0.73;;;;;;;;;;5008489;28;20057;-65
2023/01/10 11:52:30;;;;;;;7.90;1.13;;;;;;;;;;5007945;28;20057;-65
2023/01/10 11:55:00;;;;;;;5.03;0.80;;;;;;;;;;5008512;28;20050;-65
2023/01/10 11:57:32;;;;;;;4.97;1.00;;;;;;;;;;4960731;28;20065;-65
2023/01/10 12:00:06;;;;;;;2.35;0.80;;;;;;;;;;5008283;28;20052;-68
2023/01/10 12:02:44;;;;;;;6.95;1.30;;;;;;;;;;5008117;28;20053;-65
2023/01/10 12:05:19;;;;;;;1.23;0.60;;;;;;;;;;4976199;28;20061;-64
2023/01/10 12:08:05;;;;;;;1.35;0.70;;;;;;;;;;5008300;28;20046;-66
2023/01/10 12:10:36;;;;;;;1.80;0.63;;;;;;;;;;4992168;28;20061;-67
2023/01/10 12:13:16;;;;;;;1.23;0.90;;;;;;;;;;4959627;28;20068;-65
2023/01/10 12:15:48;;;;;;;2.80;0.70;;;;;;;;;;4998275;28;20060;-64
2023/01/10 12:18:18;;;;;;;1.52;0.70;;;;;;;;;;5018589;28;20052;-65
2023/01/10 12:20:53;;;;;;;2.90;0.82;;;;;;;;;;5027826;28;20049;-66
2023/01/10 12:23:26;;;;;;;1.73;0.90;;;;;;;;;;5028074;28;20521;-65
2023/01/10 12:25:59;;;;;;;1.73;0.82;;;;;;;;;;5027963;28;20137;-66
2023/01/10 12:28:50;;;;;;;2.55;0.90;;;;;;;;;;5007835;28;20107;-66
2023/01/10 12:31:22;;;;;;;2.38;0.70;;;;;;;;;;4991506;28;20054;-65
2023/01/10 12:34:00;;;;;;;2.50;0.85;;;;;;;;;;4992426;28;20097;-65
2023/01/10 12:36:49;;;;;;;1.33;0.77;;;;;;;;;;5007880;28;20046;-66
2023/01/10 12:39:27;;;;;;;2.13;0.95;;;;;;;;;;4991702;28;20046;-66
2023/01/10 12:45:29;;;;;;;2.15;0.60;;;;;;;;;;4959593;28;20080;-64
2023/01/10 12:48:42;;;;;;;1.88;0.80;;;;;;;;;;4988163;28;20053;-65
2023/01/10 12:51:17;;;;;;;2.85;0.60;;;;;;;;;;4988208;28;20054;-64
2023/01/10 12:53:57;;;;;;;2.40;0.93;;;;;;;;;;4990445;28;20065;-63
2023/01/10 12:56:28;;;;;;;0.70;0.43;;;;;;;;;;4991762;28;20053;-65
2023/01/10 12:59:10;;;;;;;1.45;0.60;;;;;;;;;;5019927;28;20064;-65
2023/01/10 13:01:42;;;;;;;6.55;1.00;;;;;;;;;;5031290;28;20094;-65
2023/01/10 13:04:17;;;;;;;2.15;0.68;;;;;;;;;;5031317;28;20626;-65
2023/01/10 13:06:47;;;;;;;1.85;0.70;;;;;;;;;;5030859;28;20053;-65
2023/01/10 13:09:21;;;;;;;2.85;0.50;;;;;;;;;;5030987;28;20509;-64
2023/01/10 13:12:18;;;;;;;1.50;0.60;;;;;;;;;;5030706;28;20053;-65
2023/01/10 13:15:03;;;;;;;6.05;0.80;;;;;;;;;;4981576;28;20044;-65
2023/01/10 13:17:37;;;;;;;;;;;;;;;;;;5031439;28;20053;-65
2023/01/10 13:20:15;;;;;;;5.25;0.75;;;;;;;;;;4981900;28;20597;-66
2023/01/10 13:22:52;;;;;;;1.27;0.70;;;;;;;;;;5031019;28;20057;-65
2023/01/10 13:25:29;;;;;;;1.10;0.52;;;;;;;;;;5013753;28;20044;-65
2023/01/10 13:28:09;;;;;;;1.67;0.60;;;;;;;;;;5073133;28;20048;-64
2023/01/10 13:30:42;;;;;;;2.63;0.90;;;;;;;;;;5021118;28;20067;-65
2023/01/10 13:33:43;;;;;;;1.63;0.70;;;;;;;;;;5021267;28;20061;-66
2023/01/10 13:36:20;;;;;;;1.50;0.80;;;;;;;;;;4978293;28;20469;-65
2023/01/10 13:39:01;;;;;;;0.93;0.50;;;;;;;;;;5010603;28;20058;-65
2023/01/10 13:45:02;;;;;;;1.27;0.68;;;;;;;;;;4952222;29;20058;-64
2023/01/10 13:47:42;;;;;;;2.17;0.70;;;;;;;;;;4952183;29;20504;-65
2023/01/10 13:50:24;;;;;;;2.78;0.70;;;;;;;;;;4952091;29;20066;-65
2023/01/10 13:53:17;;;;;;;1.20;0.60;;;;;;;;;;4951850;29;20083;-64
2023/01/10 13:55:52;;;;;;;1.10;0.65;;;;;;;;;;4848617;29;20060;-64
2023/01/10 14:04:32;;;;;;;6.03;1.15;;;;;;;;;;4894427;29;20110;-64
2023/01/10 14:07:34;;;;;;;2.83;1.20;;;;;;;;;;4894569;29;20052;-65
2023/01/10 14:10:17;;;;;;;2.53;1.02;;;;;;;;;;4864694;29;20067;-64
2023/01/10 14:12:56;;;;;;;1.88;0.70;;;;;;;;;;4887274;29;20062;-66
2023/01/10 14:15:31;;;;;;;1.23;0.80;;;;;;;;;;4932742;29;20067;-64
2023/01/10 14:18:24;;;;;;;1.60;0.80;;;;;;;;;;4920032;28;20056;-64
2023/01/10 14:21:05;;;;;;;3.15;1.25;;;;;;;;;;4974138;28;20546;-65
2023/01/10 14:23:39;;;;;;;4.20;1.90;;;;;;;;;;4990217;28;20419;-65
2023/01/10 14:26:23;;;;;;;5.95;1.60;;;;;;;;;;4990188;28;20047;-64
2023/01/10 14:28:55;;;;;;;5.97;1.00;;;;;;;;;;4990406;28;20050;-64
2023/01/10 14:31:26;;;;;;;6.28;2.13;;;;;;;;;;4958477;28;20050;-65
2023/01/10 14:33:59;;;;;;;8.25;2.78;;;;;;;;;;5063123;28;20056;-64
2023/01/10 14:36:37;;;;;;;6.28;1.42;;;;;;;;;;5072120;28;20048;-65
2023/01/10 14:39:07;;;;;;;;;;;;;;;;;;5072197;28;20048;-64
2023/01/10 14:41:51;;;;;;;3.13;0.95;;;;;;;;;;5071851;28;19927;-65
2023/01/10 14:44:36;;;;;;;40.13;24.35;;;;;;;;;;5071324;28;20048;-64
2023/01/10 14:47:27;;;;;;;17.20;9.63;;;;;;;;;;5052928;28;20055;-65
2023/01/10 14:50:07;;;;;;;11.02;5.90;;;;;;;;;;4996413;28;20100;-64
2023/01/10 14:52:42;;;;;;;10.57;6.20;;;;;;;;;;5028492;28;20050;-64
2023/01/10 14:55:16;;;;;;;9.65;4.13;;;;;;;;;;4996234;28;20413;-63
2023/01/10 14:57:58;;;;;;;5.75;2.72;;;;;;;;;;5028825;28;20060;-64
2023/01/10 15:00:31;;;;;;;6.15;2.45;;;;;;;;;;5028902;28;20049;-64
2023/01/10 15:03:02;;;;;;;4.53;1.48;;;;;;;;;;5028751;28;20060;-64
2023/01/10 15:05:56;;;;;;;6.35;3.60;;;;;;;;;;5012205;28;20397;-64
2023/01/10 15:08:29;;;;;;;4.47;1.27;;;;;;;;;;4989282;28;20046;-64
2023/01/10 15:11:06;;;;;;;3.28;0.73;;;;;;;;;;4957676;28;20054;-66
2023/01/10 15:13:51;;;;;;;1.20;0.70;;;;;;;;;;4989330;28;20066;-62
2023/01/10 15:16:23;;;;;;;1.55;0.52;;;;;;;;;;4988788;28;20046;-62
2023/01/10 15:18:55;;;;;;;0.93;0.50;;;;;;;;;;4989243;28;20049;-62
2023/01/10 15:21:26;;;;;;;0.77;0.50;;;;;;;;;;4989200;28;20058;-61
2023/01/10 15:23:56;;;;;;;1.27;0.43;;;;;;;;;;4957918;28;20506;-61
2023/01/10 15:26:27;;;;;;;3.35;0.77;;;;;;;;;;4989486;28;20062;-61
2023/01/10 15:29:23;;;;;;;1.20;0.52;;;;;;;;;;5008944;28;20049;-61
2023/01/10 15:31:56;;;;;;;7.28;0.90;;;;;;;;;;4995603;28;20061;-63
2023/01/10 15:34:29;;;;;;;1.77;0.50;;;;;;;;;;5028470;28;20061;-61
2023/01/10 15:37:01;;;;;;;1.58;0.47;;;;;;;;;;4996134;28;20469;-62
2023/01/10 15:39:38;;;;;;;1.50;0.40;;;;;;;;;;5008602;28;20053;-63
2023/01/10 15:42:11;;;;;;;1.30;0.50;;;;;;;;;;5008690;28;20062;-63
2023/01/10 15:44:51;;;;;;;1.80;0.70;;;;;;;;;;5008746;28;20065;-64
2023/01/10 15:47:43;;;;;;;0.98;0.68;;;;;;;;;;5048425;28;20044;-64
2023/01/10 15:50:21;;;;;;;0.82;0.40;;;;;;;;;;5048121;28;20048;-64
2023/01/10 15:52:54;;;;;;;1.83;0.50;;;;;;;;;;5048185;28;20053;-63
2023/01/10 15:55:47;;;;;;;1.65;0.95;;;;;;;;;;5048208;28;20077;-63
2023/01/10 15:58:35;;;;;;;1.40;0.80;;;;;;;;;;5015005;28;20064;-64